• Join FlightAware (Why Join?)
  • Login
  • US Flag 
06:03AM EDT


 

Airport Tracker/Info


-or-


 

Live Flight TrackerFlight Track Log ✈ SWA1031 ✈ 08-May-2013 ✈ KONT - KMDW

Flight Track Log - Related Links

Times and Time Zones

All times are in EDT time to prevent confusion due to time zone crossing. See the SWA1031 flight status page for this flight to view local times or setup timezone preferences in your user account.

Time Position Orientation Groundspeed Altitude Reporting Facility
EDT Latitude Longitude Course Direction KTS MPH feet Rate Location/Type
04:51PM 34.0806 -117.7869 316° Northwest 243 280 6,800  Level Los Angeles Center
04:52PM 34.1369 -117.8539 316° Northwest 286 329 10,100 3,180 Climbing Los Angeles Center
04:53PM 34.1939 -117.9200 316° Northwest 287 330 13,400 3,060 Climbing Los Angeles Center
04:54PM 34.2631 -117.9722 328° Northwest 310 357 16,500 2,400 Climbing Los Angeles Center
04:55PM 34.3381 -117.8794 46° Northeast 362 417 18,400 1,980 Climbing Los Angeles Center
04:56PM 34.3411 -117.7456 88° East 394 453 20,600 2,160 Climbing Los Angeles Center
04:57PM 34.3667 -117.6114 77° East 416 479 22,900 2,160 Climbing Los Angeles Center
04:58PM 34.4342 -117.4972 54° Northeast 422 486 25,100 1,920 Climbing Los Angeles Center
04:59PM 34.5028 -117.3781 55° Northeast 428 493 26,900 1,680 Climbing Los Angeles Center
05:00PM 34.5889 -117.2289 55° Northeast 450 518 28,700 1,320 Climbing Los Angeles Center
05:02PM 34.6633 -117.0986 55° Northeast 470 541 29,700 1,140 Climbing Los Angeles Center
05:03PM 34.7411 -116.9633 55° Northeast 488 562 31,200 1,740 Climbing Los Angeles Center
05:04PM 34.8192 -116.8281 55° Northeast 492 566 33,300 1,800 Climbing Los Angeles Center
05:05PM 34.9044 -116.7089 49° Northeast 470 541 35,000 1,440 Climbing Los Angeles Center
05:06PM 34.9936 -116.5939 47° Northeast 470 541 36,300 960 Climbing Los Angeles Center
05:07PM 35.1006 -116.4550 47° Northeast 471 542 37,000 300 Climbing Los Angeles Center
05:08PM 35.1911 -116.3389 46° Northeast 473 544 37,000  Level Los Angeles Center
05:09PM 35.2961 -116.1967 48° Northeast 470 541 37,000  Level Los Angeles Center
05:10PM 35.3856 -116.0792 47° Northeast 469 540 37,000  Level Los Angeles Center
05:11PM 35.4769 -115.9631 46° Northeast 473 544 37,000  Level Los Angeles Center
05:12PM 35.5858 -115.8228 46° Northeast 469 540 37,000  Level Los Angeles Center
05:13PM 35.6700 -115.7025 49° Northeast 466 536 37,000  Level Los Angeles Center
05:14PM 35.7222 -115.5525 67° East 479 551 37,000  Level Los Angeles Center
05:15PM 35.7722 -115.4036 67° East 478 550 37,000  Level Los Angeles Center
05:16PM 35.8225 -115.2539 67° East 476 548 37,000  Level Los Angeles Center
05:17PM 35.8794 -115.0731 69° East 476 548 37,000  Level Los Angeles Center
05:19PM 35.9503 -114.8619 67° East 478 550 37,000  Level Los Angeles Center
05:20PM 35.9997 -114.7108 68° East 476 548 37,000  Level Los Angeles Center
05:21PM 36.0478 -114.5603 68° East 473 544 37,000  Level Los Angeles Center
05:22PM 36.0972 -114.4111 68° East 471 542 37,000  Level Los Angeles Center
05:23PM 36.1558 -114.2306 68° East 473 544 37,000  Level Los Angeles Center
05:24PM 36.2047 -114.0794 68° East 475 547 37,000  Level Los Angeles Center
05:25PM 36.2533 -113.9275 68° East 475 547 37,000  Level Los Angeles Center
05:26PM 36.3019 -113.7742 68° East 478 550 37,000  Level Los Angeles Center
05:27PM 36.3508 -113.6206 68° East 480 552 37,000  Level Los Angeles Center
05:28PM 36.3997 -113.4664 68° East 481 554 37,000  Level Los Angeles Center
05:29PM 36.4567 -113.2819 69° East 478 550 37,000  Level Los Angeles Center
05:30PM 36.4997 -113.1447 69° East 477 549 37,000  Level Los Angeles Center
05:31PM 36.5575 -112.9625 68° East 475 547 37,000  Level Los Angeles Center
05:32PM 36.6033 -112.8097 69° East 474 545 37,000  Level Los Angeles Center
05:33PM 36.6503 -112.6581 69° East 472 543 37,000  Level Los Angeles Center
05:34PM 36.6967 -112.5058 69° East 472 543 37,000  Level Los Angeles Center
05:35PM 36.7439 -112.3528 69° East 475 547 37,000  Level Los Angeles Center
05:36PM 36.7892 -112.1997 70° East 474 545 37,000  Level Los Angeles Center
05:37PM 36.8450 -112.0156 69° East 475 547 37,000  Level Los Angeles Center
05:38PM 36.8547 -111.9833 69° East 478 550 37,000  Level Denver Center
05:39PM 36.9017 -111.8308 69° East 475 547 37,000  Level Denver Center
05:40PM 36.9561 -111.6478 70° East 472 543 37,000 240 Level Denver Center
05:41PM 37.0006 -111.4947 70° East 471 542 37,500 540 Climbing Denver Center
05:42PM 37.0425 -111.3433 71° East 467 537 38,200 720 Climbing Denver Center
05:43PM 37.0894 -111.1878 69° East 476 548 39,000 360 Climbing Denver Center
05:44PM 37.1347 -111.0325 70° East 476 548 39,000  Level Denver Center
05:45PM 37.1775 -110.8786 71° East 471 542 39,000  Level Denver Center
05:46PM 37.2308 -110.6942 70° East 472 543 39,000  Level Denver Center
05:47PM 37.2747 -110.5406 70° East 469 540 39,000  Level Denver Center
05:48PM 37.3178 -110.3858 71° East 471 542 39,000  Level Denver Center
05:49PM 37.3606 -110.2325 71° East 468 539 39,000  Level Denver Center
05:50PM 37.4056 -110.0717 71° East 466 536 39,000  Level Denver Center
05:51PM 37.4461 -109.9250 71° East 465 535 39,000  Level Denver Center
05:52PM 37.4936 -109.7528 71° East 464 534 39,000  Level Denver Center
05:53PM 37.5339 -109.6047 71° East 465 535 39,000  Level Denver Center
05:54PM 37.5894 -109.4047 71° East 471 542 39,000  Level Denver Center
05:55PM 37.6225 -109.2794 72° East 471 542 39,000  Level Denver Center
05:56PM 37.6769 -109.0781 71° East 474 545 39,000  Level Denver Center
05:57PM 37.7175 -108.9272 71° East 473 544 39,000  Level Denver Center
05:58PM 37.7642 -108.7494 72° East 477 549 39,000  Level Denver Center
05:59PM 37.8039 -108.5964 72° East 477 549 39,000  Level Denver Center
06:01PM 37.8503 -108.4222 71° East 471 542 39,000  Level Denver Center
06:02PM 37.8900 -108.2708 72° East 473 544 39,000  Level Denver Center
06:03PM 37.9425 -108.0669 72° East 475 547 39,000  Level Denver Center
06:04PM 37.9814 -107.9136 72° East 477 549 39,000  Level Denver Center
06:05PM 38.0264 -107.7378 72° East 472 543 39,000  Level Denver Center
06:06PM 38.0575 -107.6111 73° East 469 540 39,000  Level Denver Center
06:07PM 38.1042 -107.4294 72° East 468 539 39,000  Level Denver Center
06:08PM 38.1475 -107.2564 72° East 461 531 39,000  Level Denver Center
06:09PM 38.1872 -107.0969 72° East 462 532 39,000  Level Denver Center
06:10PM 38.2247 -106.9431 73° East 455 524 39,000  Level Denver Center
06:11PM 38.2625 -106.7892 73° East 454 522 39,000  Level Denver Center
06:12PM 38.3047 -106.6156 73° East 460 529 39,000  Level Denver Center
06:13PM 38.3372 -106.4800 73° East 458 527 39,000  Level Denver Center
06:14PM 38.3747 -106.3242 73° East 461 531 39,000  Level Denver Center
06:15PM 38.4208 -106.1353 73° East 465 535 39,000  Level Denver Center
06:16PM 38.4575 -105.9833 73° East 468 539 39,000  Level Denver Center
06:17PM 38.4972 -105.8072 74° East 465 535 39,000  Level Denver Center
06:18PM 38.5336 -105.6547 73° East 467 537 39,000  Level Denver Center
06:19PM 38.5747 -105.4786 73° East 464 534 39,000  Level Denver Center
06:20PM 38.6083 -105.3267 74° East 464 534 39,000  Level Denver Center
06:21PM 38.6431 -105.1753 74° East 463 533 39,000  Level Denver Center
06:22PM 38.6831 -105.0000 74° East 459 528 39,000  Level Denver Center
06:23PM 38.7117 -104.8719 74° East 465 535 39,000  Level Denver Center
06:24PM 38.7569 -104.6708 74° East 461 531 39,000  Level Denver Center
06:26PM 38.7914 -104.5183 74° East 463 533 39,000  Level Denver Center
06:27PM 38.8356 -104.3156 74° East 462 532 39,000  Level Denver Center
06:28PM 38.8683 -104.1653 74° East 459 528 39,000  Level Denver Center
06:29PM 38.9072 -103.9889 74° East 460 529 39,000  Level Denver Center
06:30PM 38.9397 -103.8367 75° East 461 531 39,000  Level Denver Center
06:31PM 38.9781 -103.6572 75° East 466 536 39,000  Level Denver Center
06:32PM 39.0114 -103.5031 74° East 466 536 39,000  Level Denver Center
06:33PM 39.0494 -103.3231 75° East 465 535 39,000  Level Denver Center
06:34PM 39.0803 -103.1689 76° East 464 534 39,000  Level Denver Center
06:35PM 39.1133 -103.0153 74° East 464 534 39,000  Level Denver Center
06:36PM 39.1500 -102.8336 75° East 467 537 39,000  Level Denver Center
06:37PM 39.1869 -102.6597 75° East 470 541 39,000  Level Denver Center
06:38PM 39.2175 -102.5025 76° East 473 544 39,000  Level Denver Center
06:39PM 39.2594 -102.2939 75° East 470 541 39,000  Level Denver Center
06:40PM 39.2903 -102.1414 75° East 461 531 39,000  Level Denver Center
06:41PM 39.3153 -102.0172 75° East 451 519 39,000  Level Denver Center
06:42PM 39.3567 -101.8053 76° East 452 520 39,000  Level Denver Center
06:43PM 39.3858 -101.6542 76° East 454 522 39,000  Level Denver Center
06:44PM 39.4206 -101.4792 76° East 453 521 39,000  Level Denver Center
06:46PM 39.4492 -101.3289 76° East 451 519 39,000  Level Denver Center
06:47PM 39.4822 -101.1539 76° East 450 518 39,000  Level Denver Center
06:48PM 39.5108 -101.0042 76° East 447 514 39,000  Level Denver Center
06:49PM 39.5386 -100.8531 77° East 450 518 39,000  Level Denver Center
06:50PM 39.5714 -100.6742 77° East 456 525 39,000  Level Denver Center
06:51PM 39.6006 -100.5214 76° East 457 526 39,000  Level Denver Center
06:52PM 39.6328 -100.3406 77° East 460 529 39,000  Level Denver Center
06:53PM 39.6608 -100.1867 77° East 460 529 39,000  Level Denver Center
06:54PM 39.6892 -100.0294 77° East 466 536 39,000  Level Denver Center
06:55PM 39.7233 -99.8297 77° East 461 531 39,000  Level Denver Center
06:56PM 39.7525 -99.6664 77° East 464 534 39,000  Level Denver Center
06:57PM 39.7806 -99.5031 77° East 463 533 39,000  Level Denver Center
06:58PM 39.8094 -99.3383 77° East 465 535 39,000  Level Denver Center
06:59PM 39.8372 -99.1744 78° East 465 535 39,000  Level Denver Center
07:00PM 39.8650 -99.0078 78° East 472 543 39,000  Level Denver Center
07:01PM 39.8875 -98.8767 77° East 470 541 39,000  Level Minneapolis Center
07:01PM 39.8875 -98.8761 90° East 469 540 39,000  Level Denver Center
07:02PM 39.9158 -98.7153 77° East 463 533 39,000  Level Minneapolis Center
07:03PM 39.9417 -98.5517 78° East 462 532 39,000  Level Minneapolis Center
07:04PM 39.9681 -98.3892 78° East 461 531 39,000  Level Minneapolis Center
07:05PM 39.9994 -98.1925 78° East 463 533 39,000  Level Minneapolis Center
07:06PM 40.0253 -98.0289 78° East 464 534 39,000  Level Minneapolis Center
07:07PM 40.0522 -97.8644 78° East 464 534 39,000  Level Minneapolis Center
07:08PM 40.0786 -97.6969 78° East 470 541 39,000  Level Minneapolis Center
07:09PM 40.1042 -97.5286 79° East 473 544 39,000  Level Minneapolis Center
07:10PM 40.1303 -97.3600 78° East 474 545 39,000  Level Minneapolis Center
07:11PM 40.1600 -97.1625 79° East 477 549 39,000  Level Minneapolis Center
07:12PM 40.1856 -96.9925 79° East 478 550 39,000  Level Minneapolis Center
07:13PM 40.2119 -96.8194 79° East 483 556 39,000  Level Minneapolis Center
07:14PM 40.2361 -96.6489 79° East 482 555 39,000  Level Minneapolis Center
07:15PM 40.2603 -96.4803 79° East 476 548 39,000  Level Minneapolis Center
07:16PM 40.2903 -96.2772 79° East 475 547 39,000  Level Minneapolis Center
07:17PM 40.3150 -96.1072 79° East 477 549 39,000  Level Minneapolis Center
07:18PM 40.3386 -95.9372 80° East 477 549 39,000  Level Minneapolis Center
07:19PM 40.3628 -95.7622 80° East 484 557 39,000  Level Minneapolis Center
07:20PM 40.3867 -95.5917 80° East 481 554 39,000  Level Minneapolis Center
07:21PM 40.4142 -95.3867 80° East 478 550 39,000  Level Minneapolis Center
07:22PM 40.4372 -95.2186 80° East 473 544 39,000  Level Minneapolis Center
07:23PM 40.4589 -95.0511 80° East 470 541 39,000  Level Minneapolis Center
07:24PM 40.4814 -94.8847 80° East 466 536 39,000  Level Minneapolis Center
07:25PM 40.5028 -94.7164 80° East 467 537 39,000  Level Minneapolis Center
07:26PM 40.5236 -94.5486 81° East 466 536 39,000  Level Minneapolis Center
07:28PM 40.5486 -94.3456 81° East 469 540 39,000  Level Minneapolis Center
07:29PM 40.5692 -94.1783 81° East 469 540 39,000  Level Minneapolis Center
07:30PM 40.5922 -94.0117 80° East 467 537 39,000  Level Minneapolis Center
07:31PM 40.6186 -93.8453 78° East 467 537 39,000  Level Minneapolis Center
07:32PM 40.6428 -93.6792 79° East 466 536 39,000  Level Minneapolis Center
07:33PM 40.6717 -93.4792 79° East 466 536 39,000  Level Minneapolis Center
07:34PM 40.6978 -93.3119 78° East 468 539 39,000 -780 Level Minneapolis Center
07:35PM 40.7189 -93.1472 80° East 463 533 37,400 -1,260 Descending Minneapolis Center
07:36PM 40.7444 -92.9758 79° East 471 542 36,400 -1,080 Descending Minneapolis Center
07:36PM 40.7586 -92.8692 80° East 480 552 35,800 -1,080 Descending Chicago Center
07:37PM 40.7819 -92.6919 80° East 489 563 34,800 -1,020 Descending Chicago Center
07:38PM 40.8047 -92.5194 80° East 479 551 33,800 -1,020 Descending Chicago Center
07:39PM 40.8281 -92.3506 80° East 471 542 32,800 -900 Descending Chicago Center
07:40PM 40.8503 -92.1850 80° East 461 531 32,000 -420 Descending Chicago Center
07:41PM 40.8719 -92.0172 80° East 465 535 32,000  Level Chicago Center
07:43PM 40.8975 -91.8172 80° East 464 534 32,000  Level Chicago Center
07:44PM 40.9189 -91.6494 80° East 465 535 32,000  Level Chicago Center
07:45PM 40.9394 -91.4814 81° East 465 535 32,000 -1,080 Level Chicago Center
07:46PM 40.9597 -91.3164 81° East 460 529 29,800 -2,400 Descending Chicago Center
07:47PM 40.9831 -91.1297 81° East 451 519 27,100 -2,520 Descending Chicago Center
07:48PM 41.0019 -90.9728 81° East 437 503 24,600 -1,920 Descending Chicago Center
07:49PM 41.0208 -90.8117 81° East 440 506 23,200 -780 Descending Chicago Center
07:50PM 41.0403 -90.6464 81° East 450 518 23,000 -120 Descending Chicago Center
07:51PM 41.0603 -90.4814 81° East 452 520 23,000  Level Chicago Center
07:52PM 41.0803 -90.3167 81° East 450 518 23,000  Level Chicago Center
07:53PM 41.0983 -90.1514 82° East 450 518 23,000 -660 Level Chicago Center
07:54PM 41.1164 -89.9847 82° East 453 521 21,700 -2,220 Descending Chicago Center
07:55PM 41.1378 -89.7933 81° East 435 501 18,500 -2,940 Descending Chicago Center
07:56PM 41.1553 -89.6397 81° East 424 488 15,700 -1,980 Descending Chicago Center
07:57PM 41.1669 -89.4931 84° East 406 467 14,500 -1,080 Descending Chicago Center
07:58PM 41.1767 -89.3519 85° East 390 449 13,500 -1,020 Descending Chicago Center
07:59PM 41.1861 -89.2089 85° East 388 447 12,500 -960 Descending Chicago Center
08:00PM 41.2086 -89.0675 78° East 389 448 11,500 -720 Descending Chicago Center
08:01PM 41.2631 -88.9533 58° Northeast 371 427 11,000 -780 Descending Chicago Center
08:02PM 41.3206 -88.8239 59° Northeast 341 392 9,900 -1,080 Descending Chicago Center
08:03PM 41.3628 -88.7322 58° Northeast 298 343 8,800 -1,260 Descending Chicago Center
08:04PM 41.4006 -88.6414 61° Northeast 288 331 7,300 -1,380 Descending Chicago Center
08:05PM 41.4347 -88.5461 64° Northeast 286 329 6,000 -660 Descending Chicago Center
08:06PM 41.4669 -88.4522 65° Northeast 284 327 6,000  Level Chicago Center
08:07PM 41.4994 -88.3578 65° Northeast 282 325 6,000 -600 Level Chicago Center
08:08PM 41.5394 -88.2431 65° Northeast 283 326 4,800 -960 Descending Chicago Center
08:09PM 41.5725 -88.1503 65° Northeast 279 321 4,100 -420 Descending Chicago Center
08:10PM 41.6036 -88.0578 66° East 275 316 4,000 -120 Descending Chicago Center
08:11PM 41.6331 -87.9744 65° Northeast 259 298 3,900 -240 Descending Chicago Center
08:12PM 41.6664 -87.9019 58° Northeast 244 281 3,600 -720 Descending Chicago Center
08:14PM 41.7089 -87.8492 43° Northeast 225 259 2,500 -1,080 Descending Chicago Center
08:15PM 41.7500 -87.8000 42° Northeast 142 163 1,400 -900 Descending Chicago TRACON
08:16PM 41.7667 -87.7667 56° Northeast 131 151 800 -720 Descending Chicago TRACON
08:18PM 41.7833 -87.7500 51° Northeast  Level FlightAware Approximate